sensor_id;sensor_type;location;lat;lon;timestamp;temperature;humidity
57132;DHT22;43005;52.922;5.742;2022-07-29T00:01:44;16.30;93.20
57132;DHT22;43005;52.922;5.742;2022-07-29T00:04:11;16.20;93.70
57132;DHT22;43005;52.922;5.742;2022-07-29T00:06:38;16.20;94.10
57132;DHT22;43005;52.922;5.742;2022-07-29T00:09:05;16.20;93.90
57132;DHT22;43005;52.922;5.742;2022-07-29T00:11:32;16.20;93.80
57132;DHT22;43005;52.922;5.742;2022-07-29T00:13:58;16.20;93.70
57132;DHT22;43005;52.922;5.742;2022-07-29T00:16:26;16.20;94.20
57132;DHT22;43005;52.922;5.742;2022-07-29T00:18:53;16.20;94.60
57132;DHT22;43005;52.922;5.742;2022-07-29T00:21:20;16.20;94.60
57132;DHT22;43005;52.922;5.742;2022-07-29T00:23:47;16.20;94.90
57132;DHT22;43005;52.922;5.742;2022-07-29T00:26:13;16.20;94.70
57132;DHT22;43005;52.922;5.742;2022-07-29T00:28:40;16.20;94.70
57132;DHT22;43005;52.922;5.742;2022-07-29T00:31:07;16.20;95.00
57132;DHT22;43005;52.922;5.742;2022-07-29T00:33:35;16.20;95.80
57132;DHT22;43005;52.922;5.742;2022-07-29T00:36:02;16.20;95.60
57132;DHT22;43005;52.922;5.742;2022-07-29T00:38:28;16.20;95.80
57132;DHT22;43005;52.922;5.742;2022-07-29T00:40:55;16.20;96.00
57132;DHT22;43005;52.922;5.742;2022-07-29T00:43:21;16.20;95.90
57132;DHT22;43005;52.922;5.742;2022-07-29T00:45:48;16.20;96.20
57132;DHT22;43005;52.922;5.742;2022-07-29T00:48:15;16.20;97.10
57132;DHT22;43005;52.922;5.742;2022-07-29T00:50:43;16.10;97.00
57132;DHT22;43005;52.922;5.742;2022-07-29T00:53:09;16.20;97.50
57132;DHT22;43005;52.922;5.742;2022-07-29T00:55:38;16.10;98.00
57132;DHT22;43005;52.922;5.742;2022-07-29T00:58:04;16.20;97.60
57132;DHT22;43005;52.922;5.742;2022-07-29T01:00:32;16.10;98.30
57132;DHT22;43005;52.922;5.742;2022-07-29T01:02:59;16.10;98.70
57132;DHT22;43005;52.922;5.742;2022-07-29T01:05:26;16.10;99.40
57132;DHT22;43005;52.922;5.742;2022-07-29T01:07:54;16.20;98.50
57132;DHT22;43005;52.922;5.742;2022-07-29T01:10:21;16.20;99.00
57132;DHT22;43005;52.922;5.742;2022-07-29T01:12:49;16.20;98.70
57132;DHT22;43005;52.922;5.742;2022-07-29T01:15:15;16.20;99.40
57132;DHT22;43005;52.922;5.742;2022-07-29T01:17:43;16.20;99.90
57132;DHT22;43005;52.922;5.742;2022-07-29T01:20:12;16.20;99.70
57132;DHT22;43005;52.922;5.742;2022-07-29T01:22:43;16.20;99.90
57132;DHT22;43005;52.922;5.742;2022-07-29T01:25:30;16.10;99.90
57132;DHT22;43005;52.922;5.742;2022-07-29T01:28:08;16.20;99.90
57132;DHT22;43005;52.922;5.742;2022-07-29T01:30:44;16.20;99.90
57132;DHT22;43005;52.922;5.742;2022-07-29T01:33:13;16.20;99.90
57132;DHT22;43005;52.922;5.742;2022-07-29T01:36:03;16.10;99.90
57132;DHT22;43005;52.922;5.742;2022-07-29T01:38:32;16.20;99.90
57132;DHT22;43005;52.922;5.742;2022-07-29T01:41:01;16.20;99.90
57132;DHT22;43005;52.922;5.742;2022-07-29T01:43:31;16.20;99.90
57132;DHT22;43005;52.922;5.742;2022-07-29T01:46:01;16.20;99.90
57132;DHT22;43005;52.922;5.742;2022-07-29T01:48:31;16.20;99.90
57132;DHT22;43005;52.922;5.742;2022-07-29T01:51:02;16.20;99.90
57132;DHT22;43005;52.922;5.742;2022-07-29T01:53:31;16.20;99.90
57132;DHT22;43005;52.922;5.742;2022-07-29T01:55:59;16.10;99.90
57132;DHT22;43005;52.922;5.742;2022-07-29T01:58:26;16.10;99.90
57132;DHT22;43005;52.922;5.742;2022-07-29T02:00:55;16.10;99.90
57132;DHT22;43005;52.922;5.742;2022-07-29T02:03:23;16.10;99.90
57132;DHT22;43005;52.922;5.742;2022-07-29T02:05:50;16.10;99.90
57132;DHT22;43005;52.922;5.742;2022-07-29T02:08:18;16.10;99.90
57132;DHT22;43005;52.922;5.742;2022-07-29T02:10:45;16.10;99.90
57132;DHT22;43005;52.922;5.742;2022-07-29T02:13:12;16.10;99.90
57132;DHT22;43005;52.922;5.742;2022-07-29T02:15:39;16.10;99.90
57132;DHT22;43005;52.922;5.742;2022-07-29T02:18:09;16.00;99.90
57132;DHT22;43005;52.922;5.742;2022-07-29T02:20:39;16.00;99.90
57132;DHT22;43005;52.922;5.742;2022-07-29T02:23:06;16.00;99.90
57132;DHT22;43005;52.922;5.742;2022-07-29T02:25:35;16.00;99.90
57132;DHT22;43005;52.922;5.742;2022-07-29T02:28:05;16.00;99.90
57132;DHT22;43005;52.922;5.742;2022-07-29T02:30:32;16.00;99.90
57132;DHT22;43005;52.922;5.742;2022-07-29T02:32:59;16.00;99.90
57132;DHT22;43005;52.922;5.742;2022-07-29T02:35:27;16.00;99.90
57132;DHT22;43005;52.922;5.742;2022-07-29T02:37:55;16.10;99.90
57132;DHT22;43005;52.922;5.742;2022-07-29T02:40:42;16.10;99.90
57132;DHT22;43005;52.922;5.742;2022-07-29T02:43:10;16.00;99.90
57132;DHT22;43005;52.922;5.742;2022-07-29T02:45:37;16.00;99.90
57132;DHT22;43005;52.922;5.742;2022-07-29T02:48:05;16.00;99.90
57132;DHT22;43005;52.922;5.742;2022-07-29T02:50:33;16.00;99.90
57132;DHT22;43005;52.922;5.742;2022-07-29T02:53:04;16.00;99.90
57132;DHT22;43005;52.922;5.742;2022-07-29T02:55:33;16.10;99.90
57132;DHT22;43005;52.922;5.742;2022-07-29T02:58:01;16.10;99.90
57132;DHT22;43005;52.922;5.742;2022-07-29T03:00:28;16.00;99.90
57132;DHT22;43005;52.922;5.742;2022-07-29T03:02:56;16.00;99.90
57132;DHT22;43005;52.922;5.742;2022-07-29T03:05:24;16.00;99.90
57132;DHT22;43005;52.922;5.742;2022-07-29T03:07:52;15.90;99.90
57132;DHT22;43005;52.922;5.742;2022-07-29T03:10:22;15.90;99.90
57132;DHT22;43005;52.922;5.742;2022-07-29T03:12:49;15.90;99.90
57132;DHT22;43005;52.922;5.742;2022-07-29T03:15:16;15.90;99.90
57132;DHT22;43005;52.922;5.742;2022-07-29T03:17:46;15.80;99.90
57132;DHT22;43005;52.922;5.742;2022-07-29T03:20:12;15.80;99.90
57132;DHT22;43005;52.922;5.742;2022-07-29T03:22:40;15.80;99.90
57132;DHT22;43005;52.922;5.742;2022-07-29T03:25:09;15.80;99.90
57132;DHT22;43005;52.922;5.742;2022-07-29T03:27:37;15.90;99.90
57132;DHT22;43005;52.922;5.742;2022-07-29T03:30:04;15.80;99.90
57132;DHT22;43005;52.922;5.742;2022-07-29T03:32:31;15.80;99.90
57132;DHT22;43005;52.922;5.742;2022-07-29T03:34:58;15.80;99.90
57132;DHT22;43005;52.922;5.742;2022-07-29T03:37:25;15.80;99.90
57132;DHT22;43005;52.922;5.742;2022-07-29T03:39:52;15.70;99.90
57132;DHT22;43005;52.922;5.742;2022-07-29T03:42:21;15.60;99.90
57132;DHT22;43005;52.922;5.742;2022-07-29T03:44:51;15.60;99.90
57132;DHT22;43005;52.922;5.742;2022-07-29T03:47:20;15.60;99.90
57132;DHT22;43005;52.922;5.742;2022-07-29T03:49:48;15.60;99.90
57132;DHT22;43005;52.922;5.742;2022-07-29T03:52:16;15.60;99.90
57132;DHT22;43005;52.922;5.742;2022-07-29T03:54:43;15.60;99.90
57132;DHT22;43005;52.922;5.742;2022-07-29T03:57:10;15.50;99.90
57132;DHT22;43005;52.922;5.742;2022-07-29T03:59:37;15.50;99.90
57132;DHT22;43005;52.922;5.742;2022-07-29T04:02:08;15.50;99.90
57132;DHT22;43005;52.922;5.742;2022-07-29T04:04:35;15.50;99.90
57132;DHT22;43005;52.922;5.742;2022-07-29T04:07:02;15.40;99.90
57132;DHT22;43005;52.922;5.742;2022-07-29T04:09:29;15.40;99.90
57132;DHT22;43005;52.922;5.742;2022-07-29T04:11:56;15.40;99.90
57132;DHT22;43005;52.922;5.742;2022-07-29T04:14:22;15.40;99.90
57132;DHT22;43005;52.922;5.742;2022-07-29T04:16:49;15.40;99.90
57132;DHT22;43005;52.922;5.742;2022-07-29T04:19:17;15.40;99.90
57132;DHT22;43005;52.922;5.742;2022-07-29T04:21:44;15.40;99.90
57132;DHT22;43005;52.922;5.742;2022-07-29T04:24:11;15.40;99.90
57132;DHT22;43005;52.922;5.742;2022-07-29T04:26:38;15.50;99.90
57132;DHT22;43005;52.922;5.742;2022-07-29T04:29:04;15.50;99.90
57132;DHT22;43005;52.922;5.742;2022-07-29T04:31:31;15.60;99.90
57132;DHT22;43005;52.922;5.742;2022-07-29T04:33:58;15.50;99.90
57132;DHT22;43005;52.922;5.742;2022-07-29T04:36:26;15.60;99.90
57132;DHT22;43005;52.922;5.742;2022-07-29T04:38:52;15.60;99.90
57132;DHT22;43005;52.922;5.742;2022-07-29T04:41:19;15.60;99.90
57132;DHT22;43005;52.922;5.742;2022-07-29T04:43:46;15.60;99.90
57132;DHT22;43005;52.922;5.742;2022-07-29T04:46:12;15.60;99.90
57132;DHT22;43005;52.922;5.742;2022-07-29T04:48:39;15.60;99.90
57132;DHT22;43005;52.922;5.742;2022-07-29T04:51:06;15.70;99.90
57132;DHT22;43005;52.922;5.742;2022-07-29T04:53:34;15.70;99.90
57132;DHT22;43005;52.922;5.742;2022-07-29T04:56:01;15.70;99.90
57132;DHT22;43005;52.922;5.742;2022-07-29T04:58:28;15.70;99.90
57132;DHT22;43005;52.922;5.742;2022-07-29T05:00:55;15.80;99.90
57132;DHT22;43005;52.922;5.742;2022-07-29T05:03:21;15.80;99.90
57132;DHT22;43005;52.922;5.742;2022-07-29T05:05:48;15.80;99.90
57132;DHT22;43005;52.922;5.742;2022-07-29T05:08:15;15.80;99.90
57132;DHT22;43005;52.922;5.742;2022-07-29T05:10:43;15.80;99.90
57132;DHT22;43005;52.922;5.742;2022-07-29T05:13:09;15.80;99.90
57132;DHT22;43005;52.922;5.742;2022-07-29T05:15:36;15.80;99.90
57132;DHT22;43005;52.922;5.742;2022-07-29T05:18:03;15.90;99.90
57132;DHT22;43005;52.922;5.742;2022-07-29T05:20:31;15.90;99.90
57132;DHT22;43005;52.922;5.742;2022-07-29T05:22:58;15.90;99.90
57132;DHT22;43005;52.922;5.742;2022-07-29T05:25:25;16.00;99.90
57132;DHT22;43005;52.922;5.742;2022-07-29T05:27:54;16.00;99.90
57132;DHT22;43005;52.922;5.742;2022-07-29T05:30:21;16.10;99.90
57132;DHT22;43005;52.922;5.742;2022-07-29T05:32:48;16.30;99.90
57132;DHT22;43005;52.922;5.742;2022-07-29T05:35:14;16.40;99.90
57132;DHT22;43005;52.922;5.742;2022-07-29T05:37:42;16.50;99.90
57132;DHT22;43005;52.922;5.742;2022-07-29T05:40:09;16.50;99.90
57132;DHT22;43005;52.922;5.742;2022-07-29T05:42:36;16.60;99.90
57132;DHT22;43005;52.922;5.742;2022-07-29T05:45:04;16.80;99.90
57132;DHT22;43005;52.922;5.742;2022-07-29T05:47:31;16.90;99.90
57132;DHT22;43005;52.922;5.742;2022-07-29T05:49:57;17.20;99.90
57132;DHT22;43005;52.922;5.742;2022-07-29T05:52:24;17.50;98.70
57132;DHT22;43005;52.922;5.742;2022-07-29T05:54:51;17.60;96.20
57132;DHT22;43005;52.922;5.742;2022-07-29T05:57:18;17.80;94.80
57132;DHT22;43005;52.922;5.742;2022-07-29T05:59:44;18.00;93.30
57132;DHT22;43005;52.922;5.742;2022-07-29T06:02:13;18.00;91.40
57132;DHT22;43005;52.922;5.742;2022-07-29T06:04:40;17.90;91.00
57132;DHT22;43005;52.922;5.742;2022-07-29T06:07:06;17.90;91.80
57132;DHT22;43005;52.922;5.742;2022-07-29T06:09:33;17.90;91.60
57132;DHT22;43005;52.922;5.742;2022-07-29T06:12:00;17.80;90.90
57132;DHT22;43005;52.922;5.742;2022-07-29T06:14:27;17.90;91.40
57132;DHT22;43005;52.922;5.742;2022-07-29T06:16:53;17.90;91.20
57132;DHT22;43005;52.922;5.742;2022-07-29T06:19:21;18.00;90.90
57132;DHT22;43005;52.922;5.742;2022-07-29T06:21:48;18.10;90.40
57132;DHT22;43005;52.922;5.742;2022-07-29T06:24:15;18.20;89.50
57132;DHT22;43005;52.922;5.742;2022-07-29T06:26:42;18.40;87.40
57132;DHT22;43005;52.922;5.742;2022-07-29T06:29:09;18.50;86.70
57132;DHT22;43005;52.922;5.742;2022-07-29T06:31:36;18.60;83.90
57132;DHT22;43005;52.922;5.742;2022-07-29T06:34:03;18.70;84.40
57132;DHT22;43005;52.922;5.742;2022-07-29T06:36:33;18.80;83.10
57132;DHT22;43005;52.922;5.742;2022-07-29T06:39:00;19.10;81.90
57132;DHT22;43005;52.922;5.742;2022-07-29T06:41:27;19.20;78.80
57132;DHT22;43005;52.922;5.742;2022-07-29T06:43:53;19.20;76.90
57132;DHT22;43005;52.922;5.742;2022-07-29T06:46:20;19.20;77.20
57132;DHT22;43005;52.922;5.742;2022-07-29T06:48:48;19.10;77.40
57132;DHT22;43005;52.922;5.742;2022-07-29T06:51:14;19.20;77.10
57132;DHT22;43005;52.922;5.742;2022-07-29T06:53:42;19.30;77.40
57132;DHT22;43005;52.922;5.742;2022-07-29T06:56:09;19.30;76.90
57132;DHT22;43005;52.922;5.742;2022-07-29T06:58:38;19.20;76.10
57132;DHT22;43005;52.922;5.742;2022-07-29T07:01:05;19.20;75.40
57132;DHT22;43005;52.922;5.742;2022-07-29T07:03:32;19.20;76.80
57132;DHT22;43005;52.922;5.742;2022-07-29T07:05:59;19.20;76.50
57132;DHT22;43005;52.922;5.742;2022-07-29T07:08:26;19.20;76.40
57132;DHT22;43005;52.922;5.742;2022-07-29T07:10:54;19.20;75.80
57132;DHT22;43005;52.922;5.742;2022-07-29T07:13:22;19.20;76.40
57132;DHT22;43005;52.922;5.742;2022-07-29T07:15:49;19.20;76.50
57132;DHT22;43005;52.922;5.742;2022-07-29T07:18:17;19.20;76.10
57132;DHT22;43005;52.922;5.742;2022-07-29T07:20:44;19.40;75.70
57132;DHT22;43005;52.922;5.742;2022-07-29T07:23:11;19.50;74.60
57132;DHT22;43005;52.922;5.742;2022-07-29T07:25:38;19.50;73.80
57132;DHT22;43005;52.922;5.742;2022-07-29T07:28:06;19.50;73.30
57132;DHT22;43005;52.922;5.742;2022-07-29T07:30:33;19.50;73.90
57132;DHT22;43005;52.922;5.742;2022-07-29T07:32:59;19.60;74.00
57132;DHT22;43005;52.922;5.742;2022-07-29T07:35:26;19.80;73.40
57132;DHT22;43005;52.922;5.742;2022-07-29T07:37:53;19.80;72.70
57132;DHT22;43005;52.922;5.742;2022-07-29T07:40:20;19.90;72.60
57132;DHT22;43005;52.922;5.742;2022-07-29T07:42:47;19.90;71.40
57132;DHT22;43005;52.922;5.742;2022-07-29T07:45:15;20.10;71.70
57132;DHT22;43005;52.922;5.742;2022-07-29T07:47:42;20.20;71.40
57132;DHT22;43005;52.922;5.742;2022-07-29T07:50:10;20.40;69.70
57132;DHT22;43005;52.922;5.742;2022-07-29T07:52:45;20.40;68.80
57132;DHT22;43005;52.922;5.742;2022-07-29T07:55:12;20.50;68.90
57132;DHT22;43005;52.922;5.742;2022-07-29T07:57:38;20.50;68.10
57132;DHT22;43005;52.922;5.742;2022-07-29T08:00:06;20.50;68.00
57132;DHT22;43005;52.922;5.742;2022-07-29T08:02:34;20.50;67.60
57132;DHT22;43005;52.922;5.742;2022-07-29T08:05:00;20.50;67.70
57132;DHT22;43005;52.922;5.742;2022-07-29T08:07:27;20.50;66.90
57132;DHT22;43005;52.922;5.742;2022-07-29T08:09:54;20.40;66.80
57132;DHT22;43005;52.922;5.742;2022-07-29T08:12:21;20.40;67.20
57132;DHT22;43005;52.922;5.742;2022-07-29T08:14:47;20.30;67.60
57132;DHT22;43005;52.922;5.742;2022-07-29T08:17:14;20.30;67.70
57132;DHT22;43005;52.922;5.742;2022-07-29T08:19:42;20.20;67.40
57132;DHT22;43005;52.922;5.742;2022-07-29T08:22:09;20.10;67.40
57132;DHT22;43005;52.922;5.742;2022-07-29T08:24:36;19.90;68.40
57132;DHT22;43005;52.922;5.742;2022-07-29T08:27:18;19.90;68.90
57132;DHT22;43005;52.922;5.742;2022-07-29T08:29:44;19.80;69.70
57132;DHT22;43005;52.922;5.742;2022-07-29T08:32:11;19.80;70.50
57132;DHT22;43005;52.922;5.742;2022-07-29T08:34:38;19.80;71.00
57132;DHT22;43005;52.922;5.742;2022-07-29T08:37:06;19.70;72.00
57132;DHT22;43005;52.922;5.742;2022-07-29T08:39:32;19.60;72.80
57132;DHT22;43005;52.922;5.742;2022-07-29T08:41:59;19.40;75.10
57132;DHT22;43005;52.922;5.742;2022-07-29T08:44:26;19.30;77.70
57132;DHT22;43005;52.922;5.742;2022-07-29T08:46:52;19.20;79.30
57132;DHT22;43005;52.922;5.742;2022-07-29T08:49:19;19.20;81.80
57132;DHT22;43005;52.922;5.742;2022-07-29T08:51:46;19.10;81.00
57132;DHT22;43005;52.922;5.742;2022-07-29T08:54:16;19.20;84.30
57132;DHT22;43005;52.922;5.742;2022-07-29T08:56:43;19.20;85.30
57132;DHT22;43005;52.922;5.742;2022-07-29T08:59:09;19.30;84.60
57132;DHT22;43005;52.922;5.742;2022-07-29T09:01:37;19.30;85.10
57132;DHT22;43005;52.922;5.742;2022-07-29T09:04:04;19.40;87.00
57132;DHT22;43005;52.922;5.742;2022-07-29T09:06:33;19.60;85.80
57132;DHT22;43005;52.922;5.742;2022-07-29T09:09:00;19.70;85.40
57132;DHT22;43005;52.922;5.742;2022-07-29T09:11:29;19.80;82.70
57132;DHT22;43005;52.922;5.742;2022-07-29T09:13:56;19.90;80.20
57132;DHT22;43005;52.922;5.742;2022-07-29T09:16:22;20.00;77.80
57132;DHT22;43005;52.922;5.742;2022-07-29T09:18:49;20.20;75.60
57132;DHT22;43005;52.922;5.742;2022-07-29T09:21:16;20.40;72.90
57132;DHT22;43005;52.922;5.742;2022-07-29T09:24:01;20.40;70.20
57132;DHT22;43005;52.922;5.742;2022-07-29T09:26:30;20.50;71.10
57132;DHT22;43005;52.922;5.742;2022-07-29T09:28:57;20.60;70.00
57132;DHT22;43005;52.922;5.742;2022-07-29T09:31:28;20.70;69.10
57132;DHT22;43005;52.922;5.742;2022-07-29T09:33:58;20.70;68.80
57132;DHT22;43005;52.922;5.742;2022-07-29T09:36:25;20.80;68.20
57132;DHT22;43005;52.922;5.742;2022-07-29T09:38:56;20.80;67.70
57132;DHT22;43005;52.922;5.742;2022-07-29T09:41:23;20.70;67.50
57132;DHT22;43005;52.922;5.742;2022-07-29T09:43:55;20.70;68.50
57132;DHT22;43005;52.922;5.742;2022-07-29T09:46:22;20.90;68.60
57132;DHT22;43005;52.922;5.742;2022-07-29T09:49:05;21.00;67.10
57132;DHT22;43005;52.922;5.742;2022-07-29T09:51:32;21.20;67.00
57132;DHT22;43005;52.922;5.742;2022-07-29T09:53:59;21.20;67.20
57132;DHT22;43005;52.922;5.742;2022-07-29T09:56:38;21.20;67.30
57132;DHT22;43005;52.922;5.742;2022-07-29T09:59:07;21.10;67.60
57132;DHT22;43005;52.922;5.742;2022-07-29T10:01:34;21.00;68.00
57132;DHT22;43005;52.922;5.742;2022-07-29T10:04:01;21.00;68.30
57132;DHT22;43005;52.922;5.742;2022-07-29T10:06:28;21.20;68.60
57132;DHT22;43005;52.922;5.742;2022-07-29T10:08:55;21.20;67.90
57132;DHT22;43005;52.922;5.742;2022-07-29T10:11:32;21.10;67.70
57132;DHT22;43005;52.922;5.742;2022-07-29T10:14:01;21.00;67.00
57132;DHT22;43005;52.922;5.742;2022-07-29T10:16:29;21.00;68.30
57132;DHT22;43005;52.922;5.742;2022-07-29T10:18:58;21.00;68.30
57132;DHT22;43005;52.922;5.742;2022-07-29T10:21:24;21.10;68.00
57132;DHT22;43005;52.922;5.742;2022-07-29T10:23:52;21.10;67.90
57132;DHT22;43005;52.922;5.742;2022-07-29T10:26:19;21.10;67.80
57132;DHT22;43005;52.922;5.742;2022-07-29T10:28:45;21.00;69.20
57132;DHT22;43005;52.922;5.742;2022-07-29T10:31:15;21.10;68.80
57132;DHT22;43005;52.922;5.742;2022-07-29T10:33:51;21.20;69.60
57132;DHT22;43005;52.922;5.742;2022-07-29T10:36:21;21.50;69.60
57132;DHT22;43005;52.922;5.742;2022-07-29T10:38:52;21.70;68.30
57132;DHT22;43005;52.922;5.742;2022-07-29T10:41:28;21.90;66.90
57132;DHT22;43005;52.922;5.742;2022-07-29T10:44:01;22.00;65.20
57132;DHT22;43005;52.922;5.742;2022-07-29T10:46:28;22.20;64.80
57132;DHT22;43005;52.922;5.742;2022-07-29T10:49:05;22.60;64.60
57132;DHT22;43005;52.922;5.742;2022-07-29T10:54:19;23.20;61.80
57132;DHT22;43005;52.922;5.742;2022-07-29T10:57:10;23.70;61.40
57132;DHT22;43005;52.922;5.742;2022-07-29T10:59:36;24.00;58.60
57132;DHT22;43005;52.922;5.742;2022-07-29T11:02:07;24.00;58.60
57132;DHT22;43005;52.922;5.742;2022-07-29T11:05:00;24.00;57.80
57132;DHT22;43005;52.922;5.742;2022-07-29T11:07:28;24.20;58.60
57132;DHT22;43005;52.922;5.742;2022-07-29T11:10:19;24.40;57.80
57132;DHT22;43005;52.922;5.742;2022-07-29T11:12:46;24.30;56.80
57132;DHT22;43005;52.922;5.742;2022-07-29T11:15:13;24.10;57.20
57132;DHT22;43005;52.922;5.742;2022-07-29T11:20:35;24.10;55.80
57132;DHT22;43005;52.922;5.742;2022-07-29T11:23:13;23.90;55.10
57132;DHT22;43005;52.922;5.742;2022-07-29T11:25:43;23.70;56.00
57132;DHT22;43005;52.922;5.742;2022-07-29T11:28:10;23.70;56.40
57132;DHT22;43005;52.922;5.742;2022-07-29T11:30:46;23.90;56.80
57132;DHT22;43005;52.922;5.742;2022-07-29T11:33:26;24.10;56.60
57132;DHT22;43005;52.922;5.742;2022-07-29T11:38:36;25.00;54.70
57132;DHT22;43005;52.922;5.742;2022-07-29T11:41:24;25.40;53.70
57132;DHT22;43005;52.922;5.742;2022-07-29T11:43:51;25.60;53.90
57132;DHT22;43005;52.922;5.742;2022-07-29T11:49:00;26.30;53.40
57132;DHT22;43005;52.922;5.742;2022-07-29T11:51:26;26.80;51.70
57132;DHT22;43005;52.922;5.742;2022-07-29T11:53:55;26.80;51.30
57132;DHT22;43005;52.922;5.742;2022-07-29T11:56:21;26.60;50.80
57132;DHT22;43005;52.922;5.742;2022-07-29T11:58:49;26.80;51.10
57132;DHT22;43005;52.922;5.742;2022-07-29T12:01:16;27.00;50.60
57132;DHT22;43005;52.922;5.742;2022-07-29T12:03:43;26.90;51.50
57132;DHT22;43005;52.922;5.742;2022-07-29T12:06:13;26.90;50.50
57132;DHT22;43005;52.922;5.742;2022-07-29T12:08:40;26.90;49.70
57132;DHT22;43005;52.922;5.742;2022-07-29T12:11:15;26.70;50.90
57132;DHT22;43005;52.922;5.742;2022-07-29T12:13:42;26.70;49.50
57132;DHT22;43005;52.922;5.742;2022-07-29T12:16:09;26.80;50.60
57132;DHT22;43005;52.922;5.742;2022-07-29T12:18:36;27.20;48.70
57132;DHT22;43005;52.922;5.742;2022-07-29T12:21:02;27.30;49.30
57132;DHT22;43005;52.922;5.742;2022-07-29T12:23:29;27.50;48.80
57132;DHT22;43005;52.922;5.742;2022-07-29T12:25:57;28.00;49.10
57132;DHT22;43005;52.922;5.742;2022-07-29T12:28:25;28.60;48.10
57132;DHT22;43005;52.922;5.742;2022-07-29T12:30:52;28.80;46.80
57132;DHT22;43005;52.922;5.742;2022-07-29T12:33:20;28.80;45.20
57132;DHT22;43005;52.922;5.742;2022-07-29T12:35:48;28.80;44.90
57132;DHT22;43005;52.922;5.742;2022-07-29T12:38:16;28.90;46.20
57132;DHT22;43005;52.922;5.742;2022-07-29T12:40:43;29.10;45.80
57132;DHT22;43005;52.922;5.742;2022-07-29T12:43:11;29.50;44.90
57132;DHT22;43005;52.922;5.742;2022-07-29T12:45:40;29.60;43.90
57132;DHT22;43005;52.922;5.742;2022-07-29T12:48:07;29.90;43.60
57132;DHT22;43005;52.922;5.742;2022-07-29T12:50:35;29.60;43.00
57132;DHT22;43005;52.922;5.742;2022-07-29T12:53:08;29.30;44.10
57132;DHT22;43005;52.922;5.742;2022-07-29T12:55:39;28.90;44.80
57132;DHT22;43005;52.922;5.742;2022-07-29T12:58:05;28.60;44.50
57132;DHT22;43005;52.922;5.742;2022-07-29T13:00:32;28.10;44.60
57132;DHT22;43005;52.922;5.742;2022-07-29T13:03:00;27.70;45.80
57132;DHT22;43005;52.922;5.742;2022-07-29T13:05:38;27.80;47.20
57132;DHT22;43005;52.922;5.742;2022-07-29T13:08:14;28.10;46.50
57132;DHT22;43005;52.922;5.742;2022-07-29T13:10:41;28.30;46.10
57132;DHT22;43005;52.922;5.742;2022-07-29T13:13:09;29.10;46.30
57132;DHT22;43005;52.922;5.742;2022-07-29T13:15:36;29.80;44.10
57132;DHT22;43005;52.922;5.742;2022-07-29T13:18:05;30.70;44.10
57132;DHT22;43005;52.922;5.742;2022-07-29T13:20:31;31.80;42.20
57132;DHT22;43005;52.922;5.742;2022-07-29T13:22:58;31.90;41.00
57132;DHT22;43005;52.922;5.742;2022-07-29T13:25:26;31.90;40.80
57132;DHT22;43005;52.922;5.742;2022-07-29T13:27:53;32.20;40.90
57132;DHT22;43005;52.922;5.742;2022-07-29T13:30:21;32.80;40.30
57132;DHT22;43005;52.922;5.742;2022-07-29T13:32:48;33.20;38.90
57132;DHT22;43005;52.922;5.742;2022-07-29T13:35:16;33.60;37.80
57132;DHT22;43005;52.922;5.742;2022-07-29T13:37:43;33.70;38.20
57132;DHT22;43005;52.922;5.742;2022-07-29T13:40:10;33.60;37.40
57132;DHT22;43005;52.922;5.742;2022-07-29T13:42:37;33.70;36.90
57132;DHT22;43005;52.922;5.742;2022-07-29T13:45:04;34.00;36.90
57132;DHT22;43005;52.922;5.742;2022-07-29T13:47:31;34.30;36.70
57132;DHT22;43005;52.922;5.742;2022-07-29T13:49:58;34.80;36.20
57132;DHT22;43005;52.922;5.742;2022-07-29T13:52:26;35.40;35.90
57132;DHT22;43005;52.922;5.742;2022-07-29T13:54:53;35.30;34.40
57132;DHT22;43005;52.922;5.742;2022-07-29T13:57:20;35.50;34.60
57132;DHT22;43005;52.922;5.742;2022-07-29T13:59:46;36.00;34.90
57132;DHT22;43005;52.922;5.742;2022-07-29T14:02:13;36.50;34.30
57132;DHT22;43005;52.922;5.742;2022-07-29T14:04:40;37.00;34.50
57132;DHT22;43005;52.922;5.742;2022-07-29T14:07:06;37.40;33.40
57132;DHT22;43005;52.922;5.742;2022-07-29T14:09:34;37.70;33.10
57132;DHT22;43005;52.922;5.742;2022-07-29T14:12:01;37.80;32.50
57132;DHT22;43005;52.922;5.742;2022-07-29T14:14:28;37.30;32.10
57132;DHT22;43005;52.922;5.742;2022-07-29T14:16:56;36.80;32.40
57132;DHT22;43005;52.922;5.742;2022-07-29T14:19:23;37.10;33.00
57132;DHT22;43005;52.922;5.742;2022-07-29T14:21:50;37.50;32.90
57132;DHT22;43005;52.922;5.742;2022-07-29T14:24:17;38.00;32.10
57132;DHT22;43005;52.922;5.742;2022-07-29T14:26:45;38.40;32.00
57132;DHT22;43005;52.922;5.742;2022-07-29T14:29:12;38.40;31.50
57132;DHT22;43005;52.922;5.742;2022-07-29T14:31:38;37.80;30.10
57132;DHT22;43005;52.922;5.742;2022-07-29T14:34:05;36.40;32.30
57132;DHT22;43005;52.922;5.742;2022-07-29T14:36:31;36.30;33.20
57132;DHT22;43005;52.922;5.742;2022-07-29T14:38:58;35.70;32.00
57132;DHT22;43005;52.922;5.742;2022-07-29T14:41:25;34.50;34.30
57132;DHT22;43005;52.922;5.742;2022-07-29T14:43:54;35.00;34.70
57132;DHT22;43005;52.922;5.742;2022-07-29T14:46:21;35.70;34.40
57132;DHT22;43005;52.922;5.742;2022-07-29T14:48:48;36.10;34.00
57132;DHT22;43005;52.922;5.742;2022-07-29T14:51:14;36.50;34.10
57132;DHT22;43005;52.922;5.742;2022-07-29T14:53:41;36.50;31.70
57132;DHT22;43005;52.922;5.742;2022-07-29T14:56:08;36.00;31.50
57132;DHT22;43005;52.922;5.742;2022-07-29T14:58:35;35.90;33.10
57132;DHT22;43005;52.922;5.742;2022-07-29T15:01:03;36.40;32.70
57132;DHT22;43005;52.922;5.742;2022-07-29T15:03:31;36.90;32.80
57132;DHT22;43005;52.922;5.742;2022-07-29T15:05:58;37.70;32.90
57132;DHT22;43005;52.922;5.742;2022-07-29T15:08:24;38.50;31.80
57132;DHT22;43005;52.922;5.742;2022-07-29T15:10:53;39.20;31.40
57132;DHT22;43005;52.922;5.742;2022-07-29T15:13:22;39.40;29.10
57132;DHT22;43005;52.922;5.742;2022-07-29T15:15:49;39.30;29.90
57132;DHT22;43005;52.922;5.742;2022-07-29T15:18:17;39.60;30.30
57132;DHT22;43005;52.922;5.742;2022-07-29T15:20:44;39.30;29.20
57132;DHT22;43005;52.922;5.742;2022-07-29T15:23:11;38.80;29.60
57132;DHT22;43005;52.922;5.742;2022-07-29T15:25:38;38.30;29.90
57132;DHT22;43005;52.922;5.742;2022-07-29T15:28:05;37.60;30.00
57132;DHT22;43005;52.922;5.742;2022-07-29T15:30:33;36.80;31.20
57132;DHT22;43005;52.922;5.742;2022-07-29T15:33:01;36.10;31.80
57132;DHT22;43005;52.922;5.742;2022-07-29T15:35:29;35.50;32.40
57132;DHT22;43005;52.922;5.742;2022-07-29T15:37:56;34.90;33.60
57132;DHT22;43005;52.922;5.742;2022-07-29T15:40:23;33.80;33.80
57132;DHT22;43005;52.922;5.742;2022-07-29T15:42:49;32.90;35.20
57132;DHT22;43005;52.922;5.742;2022-07-29T15:45:16;31.90;36.00
57132;DHT22;43005;52.922;5.742;2022-07-29T15:47:43;31.10;37.30